Time;durP1;ratioP1;P1;durP2;ratioP2;P2;SDS_P1;SDS_P2;PMS_P1;PMS_P2;Temp;Humidity;BMP_temperature;BMP_pressure;BME280_temperature;BME280_humidity;BME280_pressure;Samples;Min_cycle;Max_cycle;Signal;HPM_P1;HPM_P2
2023/08/01 00:02:05;;;;;;;5.88;2.72;;;18.10;99.90;;;;;;4961532;28;20057;-81
2023/08/01 00:04:31;;;;;;;5.07;2.80;;;18.00;99.90;;;;;;4964804;28;20038;-81
2023/08/01 00:06:56;;;;;;;3.95;2.60;;;18.10;99.90;;;;;;4964515;28;20076;-81
2023/08/01 00:09:22;;;;;;;4.00;2.65;;;18.10;99.90;;;;;;4963961;28;20086;-81
2023/08/01 00:11:48;;;;;;;6.95;3.05;;;18.10;99.90;;;;;;4964888;28;20030;-81
2023/08/01 00:14:16;;;;;;;4.95;2.97;;;18.10;99.90;;;;;;4964267;28;20030;-81
2023/08/01 00:16:41;;;;;;;5.57;2.80;;;18.00;99.90;;;;;;4963624;28;20509;-81
2023/08/01 00:19:07;;;;;;;6.43;2.70;;;18.00;99.90;;;;;;4963304;28;20060;-82
2023/08/01 00:21:33;;;;;;;6.05;2.80;;;18.00;99.90;;;;;;4963658;28;20022;-81
2023/08/01 00:23:58;;;;;;;4.10;2.55;;;18.00;99.90;;;;;;4963123;28;20038;-82
2023/08/01 00:26:24;;;;;;;7.10;2.80;;;18.00;99.90;;;;;;4963054;28;20118;-80
2023/08/01 00:28:49;;;;;;;8.00;3.13;;;18.00;99.90;;;;;;4964153;28;20031;-81
2023/08/01 00:31:15;;;;;;;3.90;2.60;;;18.00;99.90;;;;;;4962226;28;20371;-81
2023/08/01 00:33:40;;;;;;;5.85;2.88;;;18.00;99.90;;;;;;4962270;28;20020;-81
2023/08/01 00:36:09;;;;;;;4.40;2.90;;;18.00;99.90;;;;;;4960619;28;20041;-83
2023/08/01 00:38:35;;;;;;;5.45;2.72;;;18.00;99.90;;;;;;4963290;28;20126;-81
2023/08/01 00:41:01;;;;;;;5.43;2.88;;;18.00;99.90;;;;;;4964174;28;20019;-81
2023/08/01 00:43:27;;;;;;;8.98;3.30;;;18.00;99.90;;;;;;4965368;28;20023;-81
2023/08/01 00:45:58;;;;;;;5.45;2.70;;;18.00;99.90;;;;;;4965537;28;20027;-81
2023/08/01 00:48:23;;;;;;;5.18;2.90;;;18.00;99.90;;;;;;4964434;28;20034;-81
2023/08/01 00:50:49;;;;;;;4.78;2.67;;;18.00;99.90;;;;;;4964181;28;20454;-81
2023/08/01 00:53:16;;;;;;;6.32;3.28;;;18.00;99.90;;;;;;4964126;28;20042;-81
2023/08/01 00:55:42;;;;;;;4.15;2.97;;;18.00;99.90;;;;;;4963501;28;20038;-81
2023/08/01 00:58:07;;;;;;;4.22;2.85;;;17.90;99.90;;;;;;4963746;28;20027;-81
2023/08/01 01:00:33;;;;;;;5.40;2.95;;;17.90;99.90;;;;;;4964882;28;20031;-81
2023/08/01 01:02:59;;;;;;;5.25;2.97;;;17.90;99.90;;;;;;4963718;28;20096;-82
2023/08/01 01:05:27;;;;;;;5.75;3.10;;;18.00;99.90;;;;;;4965162;28;21422;-81
2023/08/01 01:07:53;;;;;;;4.80;2.65;;;17.90;99.90;;;;;;4963376;28;20050;-81
2023/08/01 01:10:19;;;;;;;7.32;2.75;;;17.90;99.90;;;;;;4963416;28;20563;-81
2023/08/01 01:12:44;;;;;;;5.43;3.17;;;17.90;99.90;;;;;;4964605;28;20015;-81
2023/08/01 01:15:10;;;;;;;4.65;2.95;;;18.00;99.90;;;;;;4964248;28;20073;-81
2023/08/01 01:17:36;;;;;;;5.20;2.85;;;18.00;99.90;;;;;;4964188;28;20046;-82
2023/08/01 01:20:01;;;;;;;5.20;2.70;;;18.00;99.90;;;;;;4964828;28;20026;-80
2023/08/01 01:22:28;;;;;;;6.20;3.00;;;17.90;99.90;;;;;;4965238;28;20031;-81
2023/08/01 01:24:55;;;;;;;5.95;3.05;;;18.00;99.90;;;;;;4964950;28;20027;-81
2023/08/01 01:27:22;;;;;;;7.50;3.20;;;17.90;99.90;;;;;;4962922;28;20027;-81
2023/08/01 01:29:49;;;;;;;5.18;3.28;;;17.90;99.90;;;;;;4964677;28;20046;-80
2023/08/01 01:32:15;;;;;;;6.22;2.97;;;17.90;99.90;;;;;;4963899;28;20023;-81
2023/08/01 01:34:41;;;;;;;5.07;3.00;;;17.90;99.90;;;;;;4964366;28;20402;-81
2023/08/01 01:37:06;;;;;;;7.72;3.42;;;17.90;99.90;;;;;;4962046;28;20030;-80
2023/08/01 01:39:32;;;;;;;4.78;2.88;;;17.90;99.90;;;;;;4963038;28;20051;-81
2023/08/01 01:41:57;;;;;;;4.60;2.70;;;17.90;99.90;;;;;;4962683;28;20026;-81
2023/08/01 01:44:23;;;;;;;5.75;2.90;;;17.80;99.90;;;;;;4963267;28;20022;-81
2023/08/01 01:46:49;;;;;;;8.93;3.20;;;17.80;99.90;;;;;;4961840;28;20031;-81
2023/08/01 01:49:15;;;;;;;5.28;3.00;;;17.80;99.90;;;;;;4962907;28;20070;-81
2023/08/01 01:51:40;;;;;;;4.32;2.63;;;17.70;99.90;;;;;;4962108;28;20069;-82
2023/08/01 01:54:06;;;;;;;6.05;3.28;;;17.70;99.90;;;;;;4963112;28;20063;-80
2023/08/01 01:56:32;;;;;;;5.90;3.25;;;17.70;99.90;;;;;;4961725;28;20031;-81
2023/08/01 01:58:58;;;;;;;7.00;3.45;;;17.60;99.90;;;;;;4961565;28;20995;-81
2023/08/01 02:01:23;;;;;;;4.85;2.90;;;17.60;99.90;;;;;;4961640;28;20113;-81
2023/08/01 02:03:49;;;;;;;5.32;3.03;;;17.60;99.90;;;;;;4961328;28;20090;-81
2023/08/01 02:06:14;;;;;;;5.72;3.03;;;17.60;99.90;;;;;;4960771;28;20406;-81
2023/08/01 02:08:40;;;;;;;5.03;3.45;;;17.50;99.90;;;;;;4962890;28;20034;-81
2023/08/01 02:11:05;;;;;;;4.63;3.30;;;17.50;99.90;;;;;;4961815;28;20046;-81
2023/08/01 02:13:32;;;;;;;5.35;3.40;;;17.50;99.90;;;;;;4962632;28;20516;-81
2023/08/01 02:15:57;;;;;;;5.63;3.10;;;17.50;99.90;;;;;;4963585;28;20154;-81
2023/08/01 02:18:23;;;;;;;5.22;3.28;;;17.50;99.90;;;;;;4962704;28;20383;-81
2023/08/01 02:20:48;;;;;;;5.40;3.00;;;17.50;99.90;;;;;;4963437;28;20033;-82
2023/08/01 02:23:14;;;;;;;4.78;3.42;;;17.50;99.90;;;;;;4963470;28;20038;-81
2023/08/01 02:25:40;;;;;;;6.10;3.65;;;17.50;99.90;;;;;;4961468;28;20023;-81
2023/08/01 02:28:06;;;;;;;6.25;3.28;;;17.50;99.90;;;;;;4964318;28;20037;-80
2023/08/01 02:30:33;;;;;;;6.55;3.38;;;17.40;99.90;;;;;;4962432;28;20035;-83
2023/08/01 02:32:58;;;;;;;6.28;3.17;;;17.40;99.90;;;;;;4962614;28;20118;-81
2023/08/01 02:35:24;;;;;;;5.82;3.03;;;17.40;99.90;;;;;;4961977;28;20114;-81
2023/08/01 02:37:49;;;;;;;6.30;3.30;;;17.40;99.90;;;;;;4962371;28;20035;-81
2023/08/01 02:40:15;;;;;;;7.07;3.72;;;17.40;99.90;;;;;;4962722;28;20031;-81
2023/08/01 02:42:40;;;;;;;8.88;4.00;;;17.40;99.90;;;;;;4961289;28;20038;-81
2023/08/01 02:45:06;;;;;;;5.63;3.20;;;17.40;99.90;;;;;;4967317;28;20302;-81
2023/08/01 02:47:32;;;;;;;7.10;3.22;;;17.40;99.90;;;;;;4962213;28;20035;-81
2023/08/01 02:49:57;;;;;;;5.00;3.08;;;17.40;99.90;;;;;;4962419;28;20076;-81
2023/08/01 02:52:23;;;;;;;5.88;3.00;;;17.40;99.90;;;;;;4961751;28;20030;-81
2023/08/01 02:54:48;;;;;;;5.57;3.22;;;17.40;99.90;;;;;;4962543;28;20027;-81
2023/08/01 02:57:14;;;;;;;8.75;3.60;;;17.40;99.90;;;;;;4961063;28;20077;-81
2023/08/01 02:59:40;;;;;;;5.55;3.53;;;17.40;99.90;;;;;;4962000;28;20493;-81
2023/08/01 03:02:05;;;;;;;8.13;3.25;;;17.40;99.90;;;;;;4962719;28;20045;-81
2023/08/01 03:04:31;;;;;;;4.70;3.38;;;17.30;99.90;;;;;;4962402;28;20030;-82
2023/08/01 03:06:56;;;;;;;5.78;3.85;;;17.30;99.90;;;;;;4962189;28;20038;-82
2023/08/01 03:09:22;;;;;;;5.85;3.40;;;17.30;99.90;;;;;;4963235;28;20030;-82
2023/08/01 03:11:47;;;;;;;6.80;3.55;;;17.30;99.90;;;;;;4962900;28;20530;-83
2023/08/01 03:14:13;;;;;;;5.80;3.20;;;17.30;99.90;;;;;;4963198;28;20050;-82
2023/08/01 03:16:39;;;;;;;11.40;4.43;;;17.30;99.90;;;;;;4962867;28;20033;-82
2023/08/01 03:19:04;;;;;;;7.65;3.97;;;17.20;99.90;;;;;;4963440;28;20077;-82
2023/08/01 03:21:33;;;;;;;8.68;3.85;;;17.30;99.90;;;;;;4963571;28;20106;-83
2023/08/01 03:24:03;;;;;;;6.65;4.30;;;17.20;99.90;;;;;;4964356;28;20105;-83
2023/08/01 03:26:29;;;;;;;7.60;3.90;;;17.30;99.90;;;;;;4963142;28;20035;-83
2023/08/01 03:28:55;;;;;;;5.63;3.42;;;17.30;99.90;;;;;;4962726;28;20058;-82
2023/08/01 03:31:22;;;;;;;7.65;3.55;;;17.40;99.90;;;;;;4962892;28;20054;-82
2023/08/01 03:33:47;;;;;;;8.85;4.00;;;17.40;99.90;;;;;;4962965;28;20032;-83
2023/08/01 03:36:13;;;;;;;6.63;3.80;;;17.50;99.90;;;;;;4962546;28;21656;-81
2023/08/01 03:38:39;;;;;;;7.20;3.50;;;17.50;99.90;;;;;;4966553;28;20035;-82
2023/08/01 03:41:05;;;;;;;7.43;3.83;;;17.60;99.90;;;;;;4967170;28;20026;-82
2023/08/01 03:43:30;;;;;;;6.45;3.35;;;17.60;99.90;;;;;;4966823;28;20022;-82
2023/08/01 03:45:56;;;;;;;6.88;3.80;;;17.60;99.90;;;;;;4966261;28;20022;-84
2023/08/01 03:48:21;;;;;;;6.43;3.25;;;17.60;99.90;;;;;;4965252;28;20406;-82
2023/08/01 03:50:47;;;;;;;8.27;4.22;;;17.60;99.90;;;;;;4965435;28;20092;-82
2023/08/01 03:53:13;;;;;;;6.32;3.67;;;17.60;99.90;;;;;;4966074;28;20850;-83
2023/08/01 03:55:39;;;;;;;7.68;3.90;;;17.60;99.90;;;;;;4965933;28;21488;-82
2023/08/01 03:58:04;;;;;;;7.57;3.80;;;17.50;99.90;;;;;;4965703;28;20113;-82
2023/08/01 04:00:33;;;;;;;7.60;4.05;;;17.50;99.90;;;;;;4965238;28;20042;-84
2023/08/01 04:02:59;;;;;;;5.82;3.70;;;17.50;99.90;;;;;;4964773;28;21458;-82
2023/08/01 04:05:25;;;;;;;8.80;4.32;;;17.40;99.90;;;;;;4965022;28;20035;-82
2023/08/01 04:07:54;;;;;;;6.13;4.07;;;17.40;99.90;;;;;;4965149;28;20026;-82
2023/08/01 04:10:21;;;;;;;8.98;4.22;;;17.40;99.90;;;;;;4964726;28;20031;-82
2023/08/01 04:12:46;;;;;;;6.95;4.20;;;17.30;99.90;;;;;;4964057;28;20153;-83
2023/08/01 04:15:12;;;;;;;11.30;5.18;;;17.20;99.90;;;;;;4963033;28;20118;-82
2023/08/01 04:17:37;;;;;;;7.25;4.97;;;17.20;99.90;;;;;;4963875;28;20340;-82
2023/08/01 04:20:03;;;;;;;7.43;4.22;;;17.10;99.90;;;;;;4963697;28;20030;-82
2023/08/01 04:22:29;;;;;;;8.82;4.60;;;17.10;99.90;;;;;;4963182;28;20093;-81
2023/08/01 04:24:54;;;;;;;8.23;4.45;;;17.10;99.90;;;;;;4961841;28;20015;-81
2023/08/01 04:27:20;;;;;;;9.32;4.68;;;17.00;99.90;;;;;;4960999;28;20026;-80
2023/08/01 04:29:46;;;;;;;9.70;4.70;;;16.90;99.90;;;;;;4961591;28;20037;-81
2023/08/01 04:32:13;;;;;;;7.70;4.55;;;16.90;99.90;;;;;;4958970;28;20572;-81
2023/08/01 04:34:39;;;;;;;9.00;5.00;;;16.90;99.90;;;;;;4964961;28;20035;-80
2023/08/01 04:37:05;;;;;;;8.90;4.82;;;16.80;99.90;;;;;;4962939;28;20026;-81
2023/08/01 04:39:30;;;;;;;10.18;5.35;;;16.80;99.90;;;;;;4964295;28;20027;-83
2023/08/01 04:41:56;;;;;;;8.77;4.93;;;16.80;99.90;;;;;;4963677;28;20249;-82
2023/08/01 04:44:22;;;;;;;10.10;4.50;;;16.80;99.90;;;;;;4964149;28;20031;-82
2023/08/01 04:46:48;;;;;;;7.20;4.75;;;16.80;99.90;;;;;;4962445;28;20383;-82
2023/08/01 04:49:14;;;;;;;7.15;4.53;;;16.80;99.90;;;;;;4963224;28;20034;-82
2023/08/01 04:51:40;;;;;;;8.93;4.75;;;16.70;99.90;;;;;;4961701;28;20037;-81
2023/08/01 04:54:05;;;;;;;8.10;4.60;;;16.70;99.90;;;;;;4964062;28;20528;-82
2023/08/01 04:56:31;;;;;;;11.02;4.60;;;16.80;99.90;;;;;;4963159;28;20455;-81
2023/08/01 04:58:56;;;;;;;8.80;4.70;;;16.70;99.90;;;;;;4963731;28;20117;-81
2023/08/01 05:01:22;;;;;;;10.85;4.70;;;16.70;99.90;;;;;;4963107;28;20027;-84
2023/08/01 05:03:48;;;;;;;9.70;5.15;;;16.60;99.90;;;;;;4963238;28;20036;-83
2023/08/01 05:06:13;;;;;;;7.22;4.78;;;16.60;99.90;;;;;;4963200;28;20026;-84
2023/08/01 05:08:39;;;;;;;8.00;5.00;;;16.50;99.90;;;;;;4963553;28;20032;-83
2023/08/01 05:11:04;;;;;;;8.25;5.00;;;16.50;99.90;;;;;;4964075;28;20018;-82
2023/08/01 05:13:30;;;;;;;8.23;4.88;;;16.50;99.90;;;;;;4962753;28;20028;-84
2023/08/01 05:15:56;;;;;;;9.98;4.82;;;16.50;99.90;;;;;;4960324;28;20820;-85
2023/08/01 05:18:21;;;;;;;9.57;5.18;;;16.50;99.90;;;;;;4961791;28;20033;-84
2023/08/01 05:20:47;;;;;;;9.82;4.88;;;16.40;99.90;;;;;;4963300;28;20090;-83
2023/08/01 05:23:12;;;;;;;12.13;4.82;;;16.50;99.90;;;;;;4962049;28;20027;-84
2023/08/01 05:25:38;;;;;;;8.98;4.93;;;16.40;99.90;;;;;;4963460;28;20062;-83
2023/08/01 05:28:03;;;;;;;8.43;4.85;;;16.50;99.90;;;;;;4963559;28;20016;-83
2023/08/01 05:30:29;;;;;;;9.27;4.95;;;16.40;99.90;;;;;;4963945;28;20497;-82
2023/08/01 05:32:54;;;;;;;8.65;5.20;;;16.50;99.90;;;;;;4963578;28;20050;-82
2023/08/01 05:35:21;;;;;;;10.05;5.03;;;16.50;99.90;;;;;;4964503;28;20085;-82
2023/08/01 05:37:46;;;;;;;10.50;5.85;;;16.40;99.90;;;;;;4963457;28;20688;-82
2023/08/01 05:40:12;;;;;;;9.07;5.10;;;16.40;99.90;;;;;;4963423;28;20029;-83
2023/08/01 05:42:38;;;;;;;9.20;4.97;;;16.50;99.90;;;;;;4963084;28;21494;-82
2023/08/01 05:45:04;;;;;;;7.65;4.90;;;16.50;99.90;;;;;;4963093;28;20182;-82
2023/08/01 05:47:30;;;;;;;7.07;4.53;;;16.50;99.90;;;;;;4962514;28;20024;-82
2023/08/01 05:49:56;;;;;;;9.80;6.10;;;16.80;99.90;;;;;;4961370;28;20121;-82
2023/08/01 05:52:22;;;;;;;7.63;4.38;;;16.80;99.90;;;;;;4962011;28;20445;-83
2023/08/01 05:54:48;;;;;;;7.57;4.50;;;16.80;99.90;;;;;;4963841;28;20027;-83
2023/08/01 05:57:13;;;;;;;7.75;4.50;;;16.90;99.90;;;;;;4961907;28;21373;-83
2023/08/01 05:59:39;;;;;;;6.78;4.00;;;17.00;99.90;;;;;;4960930;28;20042;-82
2023/08/01 06:02:05;;;;;;;7.65;4.15;;;17.00;99.90;;;;;;4962068;28;20031;-82
2023/08/01 06:04:31;;;;;;;7.15;4.40;;;17.00;99.90;;;;;;4953957;28;20020;-83
2023/08/01 06:06:57;;;;;;;6.72;4.10;;;17.00;99.90;;;;;;4955169;28;20502;-85
2023/08/01 06:09:22;;;;;;;6.68;4.47;;;17.00;99.90;;;;;;4955660;28;20157;-83
2023/08/01 06:11:48;;;;;;;6.20;4.00;;;17.00;99.90;;;;;;4958999;28;20038;-82
2023/08/01 06:14:14;;;;;;;7.38;4.00;;;17.00;99.90;;;;;;4956985;28;20037;-82
2023/08/01 06:16:39;;;;;;;6.90;3.88;;;17.10;99.90;;;;;;4955477;28;20031;-82
2023/08/01 06:19:05;;;;;;;6.60;4.10;;;17.00;99.90;;;;;;4957738;28;20030;-83
2023/08/01 06:21:30;;;;;;;6.30;3.95;;;17.10;99.90;;;;;;4960602;28;20102;-83
2023/08/01 06:23:56;;;;;;;6.38;3.72;;;17.20;99.90;;;;;;4961686;28;20049;-83
2023/08/01 06:26:22;;;;;;;6.35;3.95;;;17.20;99.90;;;;;;4960525;28;20031;-82
2023/08/01 06:28:47;;;;;;;8.77;4.70;;;17.20;99.90;;;;;;4961070;28;20143;-83
2023/08/01 06:31:13;;;;;;;8.95;4.10;;;17.20;99.90;;;;;;4961563;28;20176;-82
2023/08/01 06:33:38;;;;;;;11.82;4.53;;;17.10;99.90;;;;;;4956464;28;20027;-84
2023/08/01 06:36:05;;;;;;;10.00;4.80;;;17.20;99.90;;;;;;4958393;28;20026;-83
2023/08/01 06:38:30;;;;;;;7.72;4.07;;;17.20;99.90;;;;;;4957734;28;20028;-84
2023/08/01 06:40:56;;;;;;;8.32;4.50;;;17.10;99.90;;;;;;4957602;28;20030;-83
2023/08/01 06:43:24;;;;;;;7.20;3.88;;;17.30;99.90;;;;;;4957274;28;20034;-83
2023/08/01 06:45:50;;;;;;;6.97;4.18;;;17.30;99.90;;;;;;4959738;28;20023;-83
2023/08/01 06:48:15;;;;;;;6.75;3.90;;;17.20;99.90;;;;;;4958770;28;20042;-83
2023/08/01 06:50:41;;;;;;;4.63;3.13;;;17.20;99.90;;;;;;4958501;28;20393;-82
2023/08/01 06:53:08;;;;;;;7.13;3.42;;;17.30;99.90;;;;;;4959815;28;20099;-83
2023/08/01 06:55:33;;;;;;;5.95;3.63;;;17.30;99.90;;;;;;4957444;28;20042;-82
2023/08/01 06:57:59;;;;;;;7.07;3.75;;;17.30;99.90;;;;;;4959853;28;20383;-83
2023/08/01 07:00:24;;;;;;;9.93;3.78;;;17.40;99.90;;;;;;4961171;28;20042;-82
2023/08/01 07:02:50;;;;;;;7.00;3.95;;;17.40;99.90;;;;;;4960784;28;20655;-83
2023/08/01 07:05:15;;;;;;;6.43;3.33;;;17.40;99.90;;;;;;4960636;28;20805;-82
2023/08/01 07:07:41;;;;;;;10.02;3.90;;;17.40;99.90;;;;;;4961128;28;20046;-83
2023/08/01 07:10:07;;;;;;;5.65;3.53;;;17.50;99.90;;;;;;4961523;28;20038;-83
2023/08/01 07:12:33;;;;;;;5.55;3.53;;;17.50;99.90;;;;;;4961527;28;20043;-84
2023/08/01 07:14:58;;;;;;;7.18;3.42;;;17.60;99.90;;;;;;4960282;28;20541;-81
2023/08/01 07:17:24;;;;;;;5.57;3.40;;;17.60;99.90;;;;;;4961327;28;20039;-82
2023/08/01 07:19:49;;;;;;;5.20;3.40;;;17.60;99.90;;;;;;4962145;28;20498;-83
2023/08/01 07:22:15;;;;;;;5.38;3.40;;;17.70;99.90;;;;;;4962347;28;20390;-83
2023/08/01 07:24:40;;;;;;;6.18;3.40;;;17.70;99.90;;;;;;4960773;28;20179;-82
2023/08/01 07:27:06;;;;;;;5.85;3.58;;;17.80;99.90;;;;;;4960301;28;20031;-83
2023/08/01 07:29:31;;;;;;;7.40;3.80;;;17.90;99.90;;;;;;4961098;28;20118;-83
2023/08/01 07:31:57;;;;;;;6.63;3.58;;;17.90;99.90;;;;;;4961880;28;20039;-83
2023/08/01 07:34:22;;;;;;;5.22;3.15;;;17.90;99.90;;;;;;4961438;28;20086;-82
2023/08/01 07:36:49;;;;;;;9.93;3.45;;;18.00;99.90;;;;;;4960344;28;20042;-81
2023/08/01 07:39:15;;;;;;;6.38;3.53;;;18.10;99.90;;;;;;4961174;28;20028;-82
2023/08/01 07:41:41;;;;;;;7.38;3.50;;;18.10;99.90;;;;;;4958858;28;20054;-81
2023/08/01 07:44:06;;;;;;;8.27;3.60;;;18.20;99.90;;;;;;4961357;28;20461;-82
2023/08/01 07:46:32;;;;;;;6.03;3.17;;;18.30;99.90;;;;;;4960153;28;20027;-75
2023/08/01 07:48:59;;;;;;;6.57;3.45;;;18.40;99.90;;;;;;4958374;28;20083;-84
2023/08/01 07:51:25;;;;;;;6.72;3.67;;;18.50;99.90;;;;;;4959281;28;20903;-83
2023/08/01 07:53:53;;;;;;;5.30;3.47;;;18.60;99.90;;;;;;4961221;28;20030;-83
2023/08/01 07:56:19;;;;;;;4.95;3.28;;;18.70;99.90;;;;;;4962226;28;20024;-84
2023/08/01 07:58:45;;;;;;;5.28;3.00;;;18.70;99.90;;;;;;4961045;28;20339;-83
2023/08/01 08:01:11;;;;;;;5.63;3.85;;;18.80;99.90;;;;;;4959395;28;20031;-84
2023/08/01 08:03:36;;;;;;;5.65;3.00;;;19.00;99.90;;;;;;4955235;28;20062;-83
2023/08/01 08:06:03;;;;;;;5.25;3.55;;;19.20;99.90;;;;;;4955041;28;20031;-84
2023/08/01 08:08:29;;;;;;;4.40;3.35;;;19.30;99.90;;;;;;4953487;28;20057;-84
2023/08/01 08:10:55;;;;;;;6.38;3.33;;;19.40;99.90;;;;;;4955878;28;20038;-84
2023/08/01 08:13:20;;;;;;;4.88;3.33;;;19.50;99.90;;;;;;4953695;28;20035;-84
2023/08/01 08:15:46;;;;;;;6.20;3.20;;;19.70;99.90;;;;;;4954905;28;20532;-83
2023/08/01 08:18:12;;;;;;;4.93;2.85;;;19.80;99.90;;;;;;4953702;28;20034;-85
2023/08/01 08:20:43;;;;;;;4.32;3.05;;;19.80;99.90;;;;;;4953249;28;20022;-84
2023/08/01 08:23:09;;;;;;;4.65;2.95;;;19.80;99.90;;;;;;4952738;28;20782;-84
2023/08/01 08:25:35;;;;;;;5.57;3.00;;;19.80;99.90;;;;;;4952671;28;20110;-85
2023/08/01 08:28:00;;;;;;;5.70;3.30;;;19.90;99.90;;;;;;4963570;28;20089;-84
2023/08/01 08:30:26;;;;;;;5.90;3.22;;;20.00;99.90;;;;;;4962644;28;20110;-83
2023/08/01 08:32:51;;;;;;;6.80;3.55;;;20.20;99.90;;;;;;4967084;28;20024;-84
2023/08/01 08:35:17;;;;;;;5.43;3.35;;;20.30;99.90;;;;;;4956807;28;20201;-84
2023/08/01 08:37:42;;;;;;;6.90;3.45;;;20.30;99.90;;;;;;4959467;28;20030;-83
2023/08/01 08:40:09;;;;;;;11.35;3.50;;;20.30;99.90;;;;;;4958885;28;20058;-84
2023/08/01 08:42:37;;;;;;;4.82;3.17;;;20.30;99.90;;;;;;4959914;28;20034;-84
2023/08/01 08:45:05;;;;;;;5.20;3.47;;;20.30;99.90;;;;;;4956428;28;20830;-84
2023/08/01 08:47:35;;;;;;;5.47;3.00;;;20.40;99.90;;;;;;4960416;28;20030;-85
2023/08/01 08:50:01;;;;;;;6.32;3.67;;;20.50;99.90;;;;;;4960242;28;20142;-84
2023/08/01 08:52:26;;;;;;;6.80;3.22;;;20.50;99.90;;;;;;4959749;28;20039;-84
2023/08/01 08:54:52;;;;;;;5.20;3.40;;;20.50;99.90;;;;;;4958936;28;20114;-85
2023/08/01 08:57:20;;;;;;;5.93;3.50;;;20.50;99.90;;;;;;4955590;28;20023;-85
2023/08/01 08:59:46;;;;;;;3.95;3.15;;;20.50;99.90;;;;;;4957022;28;20031;-84
2023/08/01 09:02:14;;;;;;;5.85;3.50;;;20.60;99.90;;;;;;4957367;28;20046;-84
2023/08/01 09:04:40;;;;;;;5.60;3.50;;;20.60;99.90;;;;;;4959373;28;20035;-84
2023/08/01 09:07:11;;;;;;;6.20;3.60;;;20.60;99.90;;;;;;4956610;28;20051;-85
2023/08/01 09:09:37;;;;;;;6.68;3.45;;;20.50;99.90;;;;;;4958601;28;20029;-84
2023/08/01 09:12:03;;;;;;;7.88;3.90;;;20.30;99.90;;;;;;4960401;28;20030;-84
2023/08/01 09:14:29;;;;;;;6.60;3.30;;;20.40;99.90;;;;;;4958424;28;20027;-84
2023/08/01 09:16:54;;;;;;;8.02;3.42;;;20.40;99.90;;;;;;4958132;28;20097;-85
2023/08/01 09:19:23;;;;;;;5.05;3.53;;;20.50;99.90;;;;;;4960299;28;20035;-86
2023/08/01 09:21:50;;;;;;;5.72;3.53;;;20.60;99.90;;;;;;4958800;28;20482;-85
2023/08/01 09:24:20;;;;;;;5.88;3.53;;;20.70;99.90;;;;;;4960455;28;20027;-84
2023/08/01 09:26:48;;;;;;;5.95;3.63;;;20.70;99.90;;;;;;4958375;28;20065;-84
2023/08/01 09:29:16;;;;;;;6.97;3.30;;;20.70;99.90;;;;;;4959473;28;20031;-84
2023/08/01 09:31:42;;;;;;;5.90;3.58;;;20.80;99.90;;;;;;4962708;28;20089;-84
2023/08/01 09:34:25;;;;;;;7.30;3.80;;;20.80;99.90;;;;;;4961821;28;20027;-85
2023/08/01 09:36:57;;;;;;;6.43;4.00;;;20.80;99.90;;;;;;4962122;28;20027;-86
2023/08/01 09:39:23;;;;;;;9.40;3.90;;;20.70;99.90;;;;;;4961563;28;20049;-84
2023/08/01 09:42:02;;;;;;;5.85;3.60;;;20.70;99.90;;;;;;4964522;28;20039;-85
2023/08/01 09:44:29;;;;;;;6.32;3.55;;;20.50;99.90;;;;;;4963832;28;20023;-84
2023/08/01 09:46:59;;;;;;;6.03;3.30;;;20.50;99.90;;;;;;4963429;28;20827;-83
2023/08/01 09:49:26;;;;;;;6.35;3.70;;;20.50;99.90;;;;;;4962259;28;20042;-84
2023/08/01 09:51:52;;;;;;;6.88;3.20;;;20.60;99.90;;;;;;4961859;28;20031;-85
2023/08/01 09:54:18;;;;;;;6.47;3.65;;;20.50;99.90;;;;;;4961806;28;20042;-84
2023/08/01 09:56:49;;;;;;;9.05;4.15;;;20.60;99.90;;;;;;4962557;28;20027;-84
2023/08/01 09:59:19;;;;;;;7.20;3.30;;;20.50;99.90;;;;;;4960068;28;20026;-86
2023/08/01 10:01:47;;;;;;;6.38;3.75;;;20.60;99.90;;;;;;4959471;28;20031;-84
2023/08/01 10:04:14;;;;;;;7.45;4.18;;;20.70;99.90;;;;;;4961972;28;20023;-85
2023/08/01 10:06:46;;;;;;;11.32;3.55;;;20.50;99.90;;;;;;4962525;28;20652;-83
2023/08/01 10:09:13;;;;;;;7.10;3.80;;;20.20;99.90;;;;;;4963409;28;20039;-84
2023/08/01 10:11:40;;;;;;;11.23;3.92;;;19.90;99.90;;;;;;4958776;28;20455;-86
2023/08/01 10:14:06;;;;;;;8.52;3.95;;;19.80;99.90;;;;;;4959089;28;20584;-89
2023/08/01 10:16:32;;;;;;;7.40;3.78;;;19.50;99.90;;;;;;4959068;28;20046;-88
2023/08/01 10:19:00;;;;;;;8.10;3.80;;;19.30;99.90;;;;;;4960487;28;20034;-89
2023/08/01 10:21:27;;;;;;;7.90;3.15;;;19.10;99.90;;;;;;4959583;28;20038;-83
2023/08/01 10:23:54;;;;;;;8.70;3.75;;;18.90;99.90;;;;;;4960961;28;21411;-84
2023/08/01 10:26:20;;;;;;;7.38;3.63;;;18.70;99.90;;;;;;4960576;28;21393;-84
2023/08/01 10:28:58;;;;;;;6.80;3.30;;;18.50;99.90;;;;;;4959217;28;20035;-84
2023/08/01 10:31:24;;;;;;;7.70;3.95;;;18.40;99.90;;;;;;4960757;28;20039;-84
2023/08/01 10:33:50;;;;;;;7.50;3.75;;;18.20;99.90;;;;;;4960270;28;20039;-85
2023/08/01 10:36:21;;;;;;;7.20;3.75;;;18.10;99.90;;;;;;4954061;28;20118;-84
2023/08/01 10:38:51;;;;;;;8.60;3.90;;;18.10;99.90;;;;;;4959387;28;20300;-84
2023/08/01 10:41:30;;;;;;;5.10;3.35;;;18.10;99.90;;;;;;4960081;28;20403;-84
2023/08/01 10:44:12;;;;;;;5.60;3.55;;;18.10;99.90;;;;;;4960848;28;20072;-83
2023/08/01 10:46:59;;;;;;;6.88;3.85;;;17.90;99.90;;;;;;4958699;28;20034;-83
2023/08/01 10:49:35;;;;;;;6.10;3.83;;;17.90;99.90;;;;;;4959336;28;20038;-83
2023/08/01 10:52:16;;;;;;;4.45;3.30;;;17.90;99.90;;;;;;4960207;28;20027;-84
2023/08/01 10:54:42;;;;;;;5.75;3.30;;;17.80;99.90;;;;;;4960652;28;20041;-83
2023/08/01 10:57:08;;;;;;;5.85;3.83;;;17.90;99.90;;;;;;4958995;28;20035;-83
2023/08/01 10:59:34;;;;;;;6.72;3.50;;;17.90;99.90;;;;;;4959982;28;20031;-84
2023/08/01 11:02:01;;;;;;;9.63;3.67;;;17.90;99.90;;;;;;4960457;28;20690;-83
2023/08/01 11:04:26;;;;;;;5.03;3.67;;;17.90;99.90;;;;;;4959410;28;20027;-83
2023/08/01 11:06:56;;;;;;;5.03;3.10;;;17.90;99.90;;;;;;4959477;28;20019;-83
2023/08/01 11:09:23;;;;;;;6.38;3.22;;;17.90;99.90;;;;;;4958871;28;20121;-84
2023/08/01 11:11:55;;;;;;;5.70;3.50;;;17.90;99.90;;;;;;4959634;28;20058;-85
2023/08/01 11:14:23;;;;;;;4.63;3.17;;;18.00;99.90;;;;;;4957091;28;20674;-84
2023/08/01 11:16:49;;;;;;;5.00;3.28;;;18.00;99.90;;;;;;4957698;28;20031;-84
2023/08/01 11:19:33;;;;;;;6.70;3.10;;;18.10;99.90;;;;;;4959143;28;20169;-84
2023/08/01 11:22:09;;;;;;;4.55;2.60;;;18.30;99.90;;;;;;4958580;28;20030;-84
2023/08/01 11:24:34;;;;;;;3.40;2.42;;;18.40;99.90;;;;;;4959753;28;20056;-84
2023/08/01 11:27:00;;;;;;;5.53;2.65;;;18.50;99.90;;;;;;4958650;28;20493;-84
2023/08/01 11:29:25;;;;;;;4.80;2.78;;;18.60;99.90;;;;;;4961361;28;20027;-83
2023/08/01 11:31:56;;;;;;;3.85;2.33;;;18.60;99.90;;;;;;4961319;28;20113;-84
2023/08/01 11:34:22;;;;;;;3.83;2.47;;;18.70;99.90;;;;;;4959437;28;20076;-83
2023/08/01 11:36:48;;;;;;;5.85;2.50;;;18.70;99.90;;;;;;4960522;28;20530;-84
2023/08/01 11:39:15;;;;;;;4.75;2.47;;;18.70;99.90;;;;;;4961749;28;20502;-83
2023/08/01 11:41:42;;;;;;;4.07;2.90;;;18.60;99.90;;;;;;4962183;28;20070;-84
2023/08/01 11:44:08;;;;;;;4.90;2.80;;;18.50;99.90;;;;;;4963638;28;20026;-84
2023/08/01 11:46:35;;;;;;;4.78;3.10;;;18.40;99.90;;;;;;4956577;28;20103;-83
2023/08/01 11:49:01;;;;;;;5.20;2.75;;;18.40;99.90;;;;;;4961759;28;20148;-83
2023/08/01 11:51:28;;;;;;;5.38;2.83;;;18.20;99.90;;;;;;4959178;28;20081;-84
2023/08/01 11:54:03;;;;;;;5.72;2.92;;;18.20;99.90;;;;;;4958599;28;20034;-84
2023/08/01 11:56:30;;;;;;;4.93;3.03;;;18.10;99.90;;;;;;4958768;28;20031;-84
2023/08/01 11:58:56;;;;;;;4.72;2.75;;;18.00;99.90;;;;;;4961103;28;20512;-84
2023/08/01 12:01:22;;;;;;;4.35;2.72;;;17.90;99.90;;;;;;4961770;28;20019;-84
2023/08/01 12:03:53;;;;;;;4.53;2.72;;;18.00;99.90;;;;;;4962105;28;20038;-83
2023/08/01 12:06:24;;;;;;;5.53;3.50;;;18.00;99.90;;;;;;4960992;28;20097;-83
2023/08/01 12:08:51;;;;;;;5.65;3.20;;;18.00;99.90;;;;;;4962607;28;20037;-83
2023/08/01 12:11:28;;;;;;;4.32;2.90;;;18.10;99.90;;;;;;4963450;28;20589;-82
2023/08/01 12:14:13;;;;;;;4.50;2.80;;;18.20;99.90;;;;;;4962211;28;20541;-83
2023/08/01 12:16:41;;;;;;;4.50;3.15;;;18.40;99.90;;;;;;4961265;28;20038;-83
2023/08/01 12:19:08;;;;;;;4.32;3.00;;;18.60;99.90;;;;;;4961736;28;20169;-84
2023/08/01 12:21:35;;;;;;;5.20;2.95;;;18.70;99.90;;;;;;4963303;28;20039;-83
2023/08/01 12:24:01;;;;;;;5.40;3.30;;;18.80;99.90;;;;;;4964862;28;20038;-84
2023/08/01 12:26:27;;;;;;;6.72;2.55;;;18.90;99.90;;;;;;4962950;28;20242;-84
2023/08/01 12:28:53;;;;;;;4.75;2.90;;;19.00;99.90;;;;;;4963334;28;20180;-84
2023/08/01 12:31:19;;;;;;;5.05;3.00;;;19.20;99.90;;;;;;4963343;28;20034;-83
2023/08/01 12:33:46;;;;;;;4.10;2.40;;;19.30;99.90;;;;;;4964200;28;20056;-83
2023/08/01 12:36:12;;;;;;;4.60;2.70;;;19.40;99.90;;;;;;4963027;28;20112;-84
2023/08/01 12:38:38;;;;;;;5.47;2.60;;;19.60;99.90;;;;;;4962357;28;20887;-84
2023/08/01 12:41:03;;;;;;;4.63;2.78;;;19.70;99.90;;;;;;4962272;28;20027;-84
2023/08/01 12:43:29;;;;;;;3.67;2.47;;;19.70;99.90;;;;;;4962523;28;20043;-83